This is the latest recevied weather packets stored in our database for station/object DK7AK. If no packets are shown the sender has not sent any weather packets the latest 10 day(s).
| Time | Temp. | Humidity | Pressure | Rain* | Wind** | Luminosity | Snow |
|---|---|---|---|---|---|---|---|
| 1777753204 | 16.11° C | 47% | 1008.2 hPa | 0 mm | - | - | - |
| 1777743004 | 26.11° C | 22% | 1008 hPa | 0 mm | - | - | - |
| 1777741804 | 26.67° C | 21% | 1008.1 hPa | 0 mm | - | - | - |
| 1777740904 | 27.78° C | 20% | 1008.3 hPa | 0 mm | - | - | - |
| 1777740604 | 27.78° C | 20% | 1008.2 hPa | 0 mm | - | - | - |
| 1777737904 | 27.78° C | 20% | 1008.7 hPa | 0 mm | - | - | - |
| 1777737604 | 27.78° C | 20% | 1008.8 hPa | 0 mm | - | - | - |
| 1777736703 | 27.78° C | 20% | 1008.9 hPa | 0 mm | - | - | - |
| 1777730704 | 28.33° C | 13% | 1010 hPa | 0 mm | - | - | - |
| 1777730404 | 28.33° C | 13% | 1010.1 hPa | 0 mm | - | - | - |
| 1777728904 | 28.33° C | 13% | 1010.4 hPa | 0 mm | - | - | - |
| 1777727705 | 28.33° C | 13% | 1010.3 hPa | 0 mm | - | - | - |
| 1777724705 | 27.22° C | 21% | 1011.2 hPa | 0 mm | - | - | - |
| 1777723804 | 27.22° C | 21% | 1011.1 hPa | 0 mm | - | - | - |
| 1777721704 | 26.11° C | 21% | 1012.1 hPa | 0 mm | - | - | - |
| 1777718705 | 25° C | 25% | 1012.4 hPa | 0 mm | - | - | - |
| 1777717504 | 24.44° C | 28% | 1012.6 hPa | 0 mm | - | - | - |
| 1777717204 | 23.89° C | 30% | 1012.9 hPa | 0 mm | - | - | - |
| 1777716304 | 23.33° C | 27% | 1013.3 hPa | 0 mm | - | - | - |
| 1777716004 | 23.33° C | 27% | 1013 hPa | 0 mm | - | - | - |
| 1777715404 | 23.33° C | 28% | 1013.2 hPa | 0 mm | - | - | - |
| 1777713303 | 22.22° C | 28% | 1013.5 hPa | 0 mm | - | - | - |
| 1777713004 | 22.22° C | 31% | 1013.6 hPa | 0 mm | - | - | - |
| 1777712103 | 21.67° C | 32% | 1013.6 hPa | 0 mm | - | - | - |
| 1777711805 | 21.67° C | 32% | 1013.8 hPa | 0 mm | - | - | - |
* Rain latest hour (hover to see other rain measurements)
** Current wind speed in m/s (hover to see current wind gust speed)